createdAt,value
2019-02-12T00:01:35.185Z,6.67
2019-02-12T00:04:07.150Z,6.07
2019-02-12T00:06:39.166Z,6.30
2019-02-12T00:09:11.223Z,7.07
2019-02-12T00:11:43.195Z,6.27
2019-02-12T00:14:15.172Z,5.93
2019-02-12T00:16:47.174Z,5.67
2019-02-12T00:19:19.146Z,5.90
2019-02-12T00:21:51.145Z,6.20
2019-02-12T00:24:23.118Z,6.17
2019-02-12T00:26:55.138Z,5.50
2019-02-12T00:29:27.107Z,5.87
2019-02-12T00:31:59.104Z,5.77
2019-02-12T00:34:31.256Z,5.77
2019-02-12T00:37:03.184Z,5.50
2019-02-12T00:39:36.579Z,5.73
2019-02-12T00:42:08.585Z,5.60
2019-02-12T00:44:40.564Z,5.90
2019-02-12T00:47:12.555Z,5.90
2019-02-12T00:49:44.612Z,6.33
2019-02-12T00:52:16.975Z,5.47
2019-02-12T00:54:50.405Z,5.57
2019-02-12T00:57:23.123Z,5.57
2019-02-12T00:59:55.874Z,5.93
2019-02-12T01:02:28.708Z,6.10
2019-02-12T01:05:00.802Z,5.37
2019-02-12T01:07:32.775Z,5.53
2019-02-12T01:10:06.091Z,5.47
2019-02-12T01:12:38.051Z,6.60
2019-02-12T01:15:11.058Z,5.90
2019-02-12T01:17:43.076Z,6.17
2019-02-12T01:20:15.059Z,5.93
2019-02-12T01:22:47.013Z,5.87
2019-02-12T01:25:18.997Z,6.10
2019-02-12T01:27:50.948Z,5.73
2019-02-12T01:30:22.950Z,6.00
2019-02-12T01:32:54.958Z,6.03
2019-02-12T01:35:26.948Z,6.83
2019-02-12T01:37:58.918Z,6.27
2019-02-12T01:40:30.936Z,6.00
2019-02-12T01:43:02.921Z,6.60
2019-02-12T01:45:34.975Z,6.50
2019-02-12T01:48:06.939Z,6.67
2019-02-12T01:50:38.995Z,7.43
2019-02-12T01:53:10.989Z,7.30
2019-02-12T01:55:42.979Z,7.10
2019-02-12T01:58:14.962Z,6.77
2019-02-12T02:00:46.953Z,7.27
2019-02-12T02:03:18.983Z,6.90
2019-02-12T02:05:50.962Z,7.37
2019-02-12T02:08:22.953Z,8.10
2019-02-12T02:10:54.913Z,7.07
2019-02-12T02:13:26.896Z,7.47
2019-02-12T02:15:58.870Z,6.93
2019-02-12T02:18:30.881Z,7.57
2019-02-12T02:21:02.899Z,7.27
2019-02-12T02:23:34.878Z,8.27
2019-02-12T02:26:06.856Z,8.53
2019-02-12T02:28:38.817Z,7.73
2019-02-12T02:31:10.789Z,7.63
2019-02-12T02:33:42.769Z,8.73
2019-02-12T02:36:14.756Z,8.20
2019-02-12T02:38:46.747Z,9.83
2019-02-12T02:41:38.179Z,9.83
2019-02-12T02:44:10.192Z,9.97
2019-02-12T02:46:42.149Z,9.93
2019-02-12T02:49:14.171Z,10.70
2019-02-12T02:51:53.646Z,9.27
2019-02-12T02:54:20.062Z,10.07
2019-02-12T02:56:52.037Z,10.30
2019-02-12T02:59:24.031Z,9.47
2019-02-12T03:01:56.058Z,10.23
2019-02-12T03:04:28.088Z,9.87
2019-02-12T03:07:00.053Z,10.40
2019-02-12T03:09:32.054Z,8.77
2019-02-12T03:12:04.064Z,9.20
2019-02-12T03:14:36.056Z,8.53
2019-02-12T03:17:08.041Z,9.07
2019-02-12T03:19:40.063Z,9.00
2019-02-12T03:22:12.038Z,9.13
2019-02-12T03:24:44.052Z,9.10
2019-02-12T03:27:16.044Z,8.57
2019-02-12T03:29:48.115Z,8.27
2019-02-12T03:32:20.090Z,8.97
2019-02-12T03:34:52.216Z,8.10
2019-02-12T03:37:24.221Z,8.17
2019-02-12T03:39:56.210Z,8.23
2019-02-12T03:42:28.196Z,9.10
2019-02-12T03:45:00.499Z,7.17
2019-02-12T03:47:34.084Z,7.70
2019-02-12T03:50:06.779Z,7.83
2019-02-12T03:52:38.744Z,7.47
2019-02-12T03:55:10.892Z,7.93
2019-02-12T03:57:42.923Z,7.80
2019-02-12T04:00:14.933Z,7.00
2019-02-12T04:03:06.643Z,7.60
2019-02-12T04:05:39.026Z,8.07
2019-02-12T04:08:11.019Z,7.23
2019-02-12T04:10:42.997Z,8.43
2019-02-12T04:13:14.975Z,7.70
2019-02-12T04:15:47.073Z,7.10
2019-02-12T04:18:19.073Z,8.07
2019-02-12T04:20:51.103Z,8.00
2019-02-12T04:23:23.087Z,8.23
2019-02-12T04:25:55.156Z,7.33
2019-02-12T04:28:27.072Z,8.50
2019-02-12T04:33:58.209Z,7.60
2019-02-12T04:36:30.195Z,8.40
2019-02-12T04:41:41.857Z,8.13
2019-02-12T04:44:13.845Z,7.83
2019-02-12T04:46:45.852Z,7.90
2019-02-12T04:49:17.841Z,7.40
2019-02-12T04:51:49.832Z,7.90
2019-02-12T04:54:21.853Z,8.00
2019-02-12T04:56:53.880Z,9.30
2019-02-12T04:59:25.885Z,8.07
2019-02-12T05:01:57.984Z,8.97
2019-02-12T05:04:29.986Z,8.73
2019-02-12T05:07:02.042Z,9.23
2019-02-12T05:09:34.974Z,9.53
2019-02-12T05:12:06.967Z,9.10
2019-02-12T05:14:38.977Z,9.87
2019-02-12T05:17:10.961Z,9.03
2019-02-12T05:19:42.970Z,8.27
2019-02-12T05:22:14.971Z,9.30
2019-02-12T05:24:46.966Z,8.90
2019-02-12T05:27:18.991Z,8.47
2019-02-12T05:29:51.012Z,9.50
2019-02-12T05:32:22.974Z,7.73
2019-02-12T05:34:55.918Z,9.23
2019-02-12T05:37:28.824Z,10.00
2019-02-12T05:40:00.800Z,9.30
2019-02-12T05:42:34.016Z,9.03
2019-02-12T05:45:25.530Z,8.53
2019-02-12T05:47:57.532Z,8.13
2019-02-12T05:50:29.541Z,8.83
2019-02-12T05:53:01.528Z,8.53
2019-02-12T05:55:33.532Z,8.30
2019-02-12T05:58:05.494Z,8.73
2019-02-12T06:00:37.507Z,7.90
2019-02-12T06:03:09.522Z,7.90
2019-02-12T06:05:41.548Z,9.20
2019-02-12T06:08:13.500Z,8.27
2019-02-12T06:10:45.521Z,8.97
2019-02-12T06:13:17.497Z,9.90
2019-02-12T06:15:49.491Z,9.97
2019-02-12T06:18:21.472Z,10.13
2019-02-12T06:20:53.493Z,11.90
2019-02-12T06:23:25.440Z,11.10
2019-02-12T06:25:57.461Z,9.50
2019-02-12T06:28:29.487Z,10.00
2019-02-12T06:31:01.487Z,8.70
2019-02-12T06:33:33.545Z,9.40
2019-02-12T06:36:05.614Z,8.50
2019-02-12T06:38:37.561Z,9.80
2019-02-12T06:41:09.614Z,9.30
2019-02-12T06:43:41.594Z,9.47
2019-02-12T06:46:13.629Z,9.20
2019-02-12T06:48:45.600Z,10.67
2019-02-12T06:51:17.618Z,9.60
2019-02-12T06:53:49.585Z,10.37
2019-02-12T06:56:21.578Z,9.40
2019-02-12T06:58:53.582Z,9.00
2019-02-12T07:01:25.596Z,8.73
2019-02-12T07:03:59.963Z,9.43
2019-02-12T07:06:54.568Z,9.17
2019-02-12T07:09:38.092Z,9.40
2019-02-12T07:12:37.200Z,9.03
2019-02-12T07:15:20.096Z,9.17
2019-02-12T07:18:44.398Z,9.30
2019-02-12T07:21:47.208Z,9.83
2019-02-12T07:25:13.276Z,12.07
2019-02-12T07:28:11.102Z,10.70
2019-02-12T07:31:30.146Z,10.77
2019-02-12T07:34:37.463Z,10.53
2019-02-12T07:37:50.184Z,12.00
2019-02-12T07:41:18.448Z,10.67
2019-02-12T07:44:12.310Z,11.13
2019-02-12T07:47:19.867Z,10.43
2019-02-12T07:50:23.530Z,11.00
2019-02-12T07:53:31.450Z,10.10
2019-02-12T07:56:25.273Z,10.00
2019-02-12T07:59:38.298Z,10.73
2019-02-12T08:02:33.776Z,10.47
2019-02-12T08:06:10.317Z,10.60
2019-02-12T08:09:29.180Z,10.20
2019-02-12T08:12:33.172Z,10.43
2019-02-12T08:15:50.238Z,10.13
2019-02-12T08:19:22.554Z,9.80
2019-02-12T08:22:33.908Z,9.93
2019-02-12T08:25:18.131Z,10.40
2019-02-12T08:28:31.444Z,9.53
2019-02-12T08:31:12.043Z,10.20
2019-02-12T08:34:19.827Z,10.67
2019-02-12T08:37:21.281Z,9.70
2019-02-12T08:40:24.466Z,9.20
2019-02-12T08:43:42.291Z,9.03
2019-02-12T08:46:58.691Z,9.63
2019-02-12T08:50:02.633Z,9.20
2019-02-12T08:52:59.390Z,9.97
2019-02-12T08:56:10.449Z,10.07
2019-02-12T08:59:12.577Z,9.83
2019-02-12T09:02:41.757Z,9.03
2019-02-12T09:05:48.807Z,9.50
2019-02-12T09:09:04.050Z,9.40
2019-02-12T09:12:03.340Z,9.33
2019-02-12T09:14:59.003Z,9.60
2019-02-12T09:18:22.175Z,9.33
2019-02-12T09:21:14.102Z,8.43
2019-02-12T09:24:24.527Z,8.60
2019-02-12T09:27:18.123Z,8.50
2019-02-12T09:30:32.031Z,7.20
2019-02-12T09:33:35.697Z,8.77
2019-02-12T09:36:36.031Z,7.73
2019-02-12T09:39:36.797Z,8.10
2019-02-12T09:42:44.504Z,8.17
2019-02-12T09:45:49.442Z,7.27
2019-02-12T09:48:38.327Z,7.30
2019-02-12T09:51:45.856Z,6.40
2019-02-12T09:54:59.649Z,6.93
2019-02-12T09:57:48.231Z,6.23
2019-02-12T10:00:57.012Z,5.80
2019-02-12T10:04:18.454Z,5.93
2019-02-12T10:07:30.293Z,6.37
2019-02-12T10:10:43.090Z,5.80
2019-02-12T10:13:46.420Z,6.10
2019-02-12T10:16:57.041Z,6.03
2019-02-12T10:19:46.235Z,5.97
2019-02-12T10:23:00.148Z,6.60
2019-02-12T10:25:42.904Z,5.97
2019-02-12T10:28:48.419Z,6.27
2019-02-12T10:31:40.395Z,5.67
2019-02-12T10:34:12.388Z,5.37
2019-02-12T10:36:44.357Z,5.10
2019-02-12T10:39:16.714Z,5.30
2019-02-12T10:41:48.690Z,6.23
2019-02-12T10:44:20.733Z,4.53
2019-02-12T10:46:52.729Z,4.70
2019-02-12T10:49:24.817Z,4.70
2019-02-12T10:51:56.836Z,3.90
2019-02-12T10:54:28.855Z,4.23
2019-02-12T10:57:00.830Z,3.97
2019-02-12T10:59:32.874Z,4.27
2019-02-12T11:02:04.885Z,4.40
2019-02-12T11:04:36.951Z,3.90
2019-02-12T11:07:08.988Z,4.30
2019-02-12T11:09:40.967Z,4.93
2019-02-12T11:12:12.988Z,4.27
2019-02-12T11:14:44.996Z,4.30
2019-02-12T11:17:17.004Z,4.23
2019-02-12T11:19:49.048Z,5.03
2019-02-12T11:22:21.018Z,4.47
2019-02-12T11:24:53.033Z,4.50
2019-02-12T11:27:26.066Z,4.53
2019-02-12T11:29:58.052Z,3.97
2019-02-12T11:32:30.095Z,3.77
2019-02-12T11:35:02.239Z,4.00
2019-02-12T11:37:34.274Z,4.00
2019-02-12T11:40:06.981Z,4.53
2019-02-12T11:42:39.027Z,4.83
2019-02-12T11:45:11.002Z,4.73
2019-02-12T11:47:43.009Z,5.07
2019-02-12T11:50:14.979Z,4.67
2019-02-12T11:52:47.031Z,4.50
2019-02-12T11:55:19.021Z,5.17
2019-02-12T11:57:51.066Z,4.40
2019-02-12T12:03:19.960Z,4.90
2019-02-12T12:05:51.975Z,5.43
2019-02-12T12:08:23.999Z,5.43
2019-02-12T12:10:56.008Z,6.10
2019-02-12T12:13:28.010Z,5.33
2019-02-12T12:16:00.004Z,5.10
2019-02-12T12:18:32.042Z,4.80
2019-02-12T12:21:04.059Z,4.60
2019-02-12T12:23:36.083Z,5.47
2019-02-12T12:26:08.131Z,4.83
2019-02-12T12:28:40.166Z,4.57
2019-02-12T12:31:12.154Z,4.90
2019-02-12T12:33:44.149Z,4.87
2019-02-12T12:36:16.153Z,3.80
2019-02-12T12:38:48.186Z,4.30
2019-02-12T12:41:20.183Z,4.40
2019-02-12T12:43:52.197Z,4.07
2019-02-12T12:46:24.188Z,5.10
2019-02-12T12:48:56.231Z,5.67
2019-02-12T12:51:28.207Z,6.03
2019-02-12T12:54:00.260Z,5.80
2019-02-12T12:56:32.245Z,5.17
2019-02-12T12:59:04.234Z,6.67
2019-02-12T13:01:36.233Z,4.63
2019-02-12T13:04:08.285Z,4.90
2019-02-12T13:06:40.286Z,6.90
2019-02-12T13:09:12.278Z,5.17
2019-02-12T13:11:44.284Z,6.23
2019-02-12T13:14:16.304Z,6.97
2019-02-12T13:16:48.404Z,6.30
2019-02-12T13:19:20.404Z,8.60
2019-02-12T13:21:52.450Z,5.13
2019-02-12T13:24:24.494Z,5.57
2019-02-12T13:26:56.538Z,4.63
2019-02-12T13:32:22.112Z,5.20
2019-02-12T13:34:54.145Z,4.83
2019-02-12T13:37:26.172Z,5.23
2019-02-12T13:39:58.204Z,5.20
2019-02-12T13:42:30.249Z,4.83
2019-02-12T13:45:02.263Z,4.70
2019-02-12T13:47:34.266Z,4.90
2019-02-12T13:50:06.935Z,4.40
2019-02-12T13:52:38.969Z,7.77
2019-02-12T13:55:16.910Z,4.83
2019-02-12T13:57:45.018Z,3.97
2019-02-12T14:00:17.002Z,4.77
2019-02-12T14:02:49.057Z,4.10
2019-02-12T14:05:21.109Z,5.40
2019-02-12T14:07:53.119Z,5.33
2019-02-12T14:10:25.090Z,5.03
2019-02-12T14:12:57.112Z,4.60
2019-02-12T14:15:29.160Z,4.53
2019-02-12T14:18:01.219Z,4.53
2019-02-12T14:20:33.231Z,4.00
2019-02-12T14:23:05.238Z,4.60
2019-02-12T14:25:37.267Z,4.27
2019-02-12T14:28:09.322Z,3.80
2019-02-12T14:30:41.297Z,4.13
2019-02-12T14:33:13.358Z,4.30
2019-02-12T14:35:45.456Z,4.67
2019-02-12T14:38:17.450Z,5.00
2019-02-12T14:40:49.491Z,4.10
2019-02-12T14:43:21.524Z,4.20
2019-02-12T14:45:53.544Z,4.23
2019-02-12T14:48:25.586Z,4.17
2019-02-12T14:50:57.590Z,3.60
2019-02-12T14:53:29.646Z,4.13
2019-02-12T14:56:01.704Z,3.83
2019-02-12T14:58:33.744Z,4.23
2019-02-12T15:01:05.795Z,5.70
2019-02-12T15:06:36.856Z,4.87
2019-02-12T15:09:08.906Z,4.47
2019-02-12T15:11:40.946Z,4.30
2019-02-12T15:14:12.979Z,4.10
2019-02-12T15:16:45.020Z,5.03
2019-02-12T15:19:17.045Z,5.67
2019-02-12T15:21:49.035Z,3.83
2019-02-12T15:24:21.102Z,4.30
2019-02-12T15:26:53.132Z,6.23
2019-02-12T15:29:25.260Z,4.80
2019-02-12T15:31:57.244Z,4.30
2019-02-12T15:34:29.294Z,4.73
2019-02-12T15:37:01.305Z,4.57
2019-02-12T15:39:33.425Z,4.57
2019-02-12T15:42:05.471Z,4.93
2019-02-12T15:44:37.505Z,4.27
2019-02-12T15:47:09.571Z,4.47
2019-02-12T15:49:41.713Z,4.57
2019-02-12T15:52:15.534Z,4.20
2019-02-12T15:54:47.711Z,4.33
2019-02-12T15:57:19.744Z,4.77
2019-02-12T15:59:52.274Z,5.10
2019-02-12T16:02:25.830Z,5.10
2019-02-12T16:04:57.835Z,6.83
2019-02-12T16:07:29.947Z,5.63
2019-02-12T16:10:01.960Z,5.67
2019-02-12T16:12:33.984Z,6.93
2019-02-12T16:15:08.520Z,12.07
2019-02-12T16:17:40.582Z,11.20
2019-02-12T16:20:12.718Z,6.97
2019-02-12T16:22:44.766Z,6.20
2019-02-12T16:25:16.773Z,4.70
2019-02-12T16:27:48.803Z,5.70
2019-02-12T16:30:20.841Z,5.43
2019-02-12T16:35:30.954Z,6.13
2019-02-12T16:38:03.118Z,6.20
2019-02-12T16:40:35.112Z,6.10
2019-02-12T16:43:07.203Z,5.97
2019-02-12T16:46:00.391Z,5.70
2019-02-12T16:48:32.522Z,6.03
2019-02-12T16:51:04.520Z,6.57
2019-02-12T16:53:36.549Z,6.53
2019-02-12T16:56:08.707Z,6.87
2019-02-12T16:58:40.680Z,6.47
2019-02-12T17:01:12.678Z,6.17
2019-02-12T17:03:44.850Z,6.80
2019-02-12T17:06:16.858Z,6.13
2019-02-12T17:08:48.899Z,6.70
2019-02-12T17:11:20.898Z,6.87
2019-02-12T17:13:53.747Z,6.70
2019-02-12T17:16:25.749Z,5.73
2019-02-12T17:18:57.832Z,5.13
2019-02-12T17:21:29.820Z,5.70
2019-02-12T17:24:01.909Z,6.10
2019-02-12T17:26:33.991Z,6.50
2019-02-12T17:29:05.995Z,7.17
2019-02-12T17:31:37.985Z,7.23
2019-02-12T17:34:10.040Z,5.77
2019-02-12T17:36:42.019Z,5.97
2019-02-12T17:39:14.059Z,5.70
2019-02-12T17:41:46.372Z,7.60
2019-02-12T17:44:18.400Z,7.47
2019-02-12T17:46:50.399Z,6.33
2019-02-12T17:49:26.578Z,6.50
2019-02-12T17:51:58.610Z,8.83
2019-02-12T17:54:31.029Z,12.37
2019-02-12T17:57:06.047Z,8.77
2019-02-12T17:59:38.479Z,8.73
2019-02-12T18:02:10.485Z,10.30
2019-02-12T18:04:42.637Z,15.17
2019-02-12T18:07:14.717Z,35.00
2019-02-12T18:09:46.981Z,49.80
2019-02-12T18:12:19.010Z,44.90
2019-02-12T18:14:51.117Z,33.47
2019-02-12T18:17:23.145Z,21.67
2019-02-12T18:19:55.479Z,16.20
2019-02-12T18:22:27.616Z,13.67
2019-02-12T18:24:59.656Z,10.73
2019-02-12T18:27:31.736Z,8.97
2019-02-12T18:30:05.433Z,8.10
2019-02-12T18:32:37.609Z,8.80
2019-02-12T18:35:09.638Z,8.83
2019-02-12T18:37:41.733Z,8.83
2019-02-12T18:40:13.792Z,8.70
2019-02-12T18:42:45.973Z,8.40
2019-02-12T18:45:18.132Z,6.93
2019-02-12T18:47:50.184Z,7.27
2019-02-12T18:50:22.256Z,6.37
2019-02-12T18:52:54.341Z,7.60
2019-02-12T18:55:26.352Z,7.20
2019-02-12T18:57:58.456Z,7.60
2019-02-12T19:00:30.533Z,7.20
2019-02-12T19:03:02.660Z,6.30
2019-02-12T19:05:34.812Z,11.50
2019-02-12T19:08:06.958Z,11.60
2019-02-12T19:10:38.998Z,12.77
2019-02-12T19:13:15.028Z,12.20
2019-02-12T19:15:47.036Z,11.47
2019-02-12T19:18:24.246Z,9.33
2019-02-12T19:20:56.279Z,14.27
2019-02-12T19:23:28.471Z,12.00
2019-02-12T19:26:00.507Z,14.43
2019-02-12T19:28:32.637Z,16.77
2019-02-12T19:31:04.688Z,18.40
2019-02-12T19:33:36.791Z,22.23
2019-02-12T19:36:08.903Z,19.20
2019-02-12T19:38:41.128Z,15.03
2019-02-12T19:41:13.294Z,14.00
2019-02-12T19:43:45.496Z,12.67
2019-02-12T19:46:17.592Z,12.20
2019-02-12T19:48:49.877Z,12.07
2019-02-12T19:51:21.955Z,7.63
2019-02-12T19:53:54.085Z,6.27
2019-02-12T19:56:26.162Z,6.17
2019-02-12T19:58:58.279Z,6.37
2019-02-12T20:01:30.371Z,6.03
2019-02-12T20:04:02.462Z,6.33
2019-02-12T20:06:34.539Z,6.10
2019-02-12T20:09:13.458Z,6.93
2019-02-12T20:11:45.541Z,7.77
2019-02-12T20:14:17.686Z,7.93
2019-02-12T20:16:49.862Z,7.00
2019-02-12T20:19:22.004Z,7.03
2019-02-12T20:21:54.100Z,5.93
2019-02-12T20:24:26.227Z,6.80
2019-02-12T20:27:06.229Z,7.90
2019-02-12T20:29:32.180Z,13.33
2019-02-12T20:32:04.292Z,12.17
2019-02-12T20:34:36.290Z,12.13
2019-02-12T20:37:08.459Z,15.40
2019-02-12T20:39:40.590Z,47.73
2019-02-12T20:42:12.643Z,47.33
2019-02-12T20:44:47.187Z,44.43
2019-02-12T20:47:19.087Z,13.13
2019-02-12T20:49:51.261Z,10.33
2019-02-12T20:52:23.309Z,16.97
2019-02-12T20:54:55.703Z,12.93
2019-02-12T20:57:27.731Z,12.03
2019-02-12T20:59:59.882Z,27.93
2019-02-12T21:02:31.970Z,13.53
2019-02-12T21:05:05.828Z,11.77
2019-02-12T21:07:38.197Z,11.17
2019-02-12T21:10:12.086Z,9.20
2019-02-12T21:12:44.283Z,9.87
2019-02-12T21:15:19.827Z,8.90
2019-02-12T21:17:51.953Z,9.00
2019-02-12T21:20:23.999Z,9.83
2019-02-12T21:22:56.101Z,9.03
2019-02-12T21:25:28.227Z,9.10
2019-02-12T21:28:00.532Z,9.50
2019-02-12T21:30:32.569Z,13.10
2019-02-12T21:33:04.613Z,11.90
2019-02-12T21:35:39.592Z,12.20
2019-02-12T21:38:14.606Z,10.47
2019-02-12T21:40:46.804Z,8.57
2019-02-12T21:43:20.592Z,8.80
2019-02-12T21:45:52.599Z,8.60
2019-02-12T21:48:25.310Z,7.63
2019-02-12T21:51:01.114Z,8.90
2019-02-12T21:53:35.061Z,8.10
2019-02-12T21:56:07.116Z,8.63
2019-02-12T21:58:39.154Z,7.93
2019-02-12T22:01:11.157Z,8.33
2019-02-12T22:03:43.198Z,7.13
2019-02-12T22:06:15.294Z,7.50
2019-02-12T22:08:47.306Z,6.73
2019-02-12T22:11:19.285Z,8.57
2019-02-12T22:13:51.351Z,10.57
2019-02-12T22:16:23.367Z,9.50
2019-02-12T22:18:55.414Z,8.97
2019-02-12T22:21:27.410Z,8.63
2019-02-12T22:23:59.466Z,7.87
2019-02-12T22:26:31.500Z,8.27
2019-02-12T22:29:03.557Z,7.83
2019-02-12T22:31:35.535Z,7.93
2019-02-12T22:34:08.353Z,7.17
2019-02-12T22:36:40.379Z,7.70
2019-02-12T22:39:12.703Z,7.30
2019-02-12T22:41:44.724Z,8.07
2019-02-12T22:44:16.744Z,7.90
2019-02-12T22:46:48.769Z,8.40
2019-02-12T22:49:21.011Z,8.17
2019-02-12T22:51:53.112Z,8.37
2019-02-12T22:54:25.103Z,8.40
2019-02-12T22:56:57.085Z,7.30
2019-02-12T22:59:29.076Z,8.10
2019-02-12T23:02:01.117Z,6.90
2019-02-12T23:04:33.566Z,7.97
2019-02-12T23:07:05.571Z,7.77
2019-02-12T23:09:37.555Z,8.13
2019-02-12T23:12:09.579Z,8.07
2019-02-12T23:14:41.614Z,7.80
2019-02-12T23:17:13.657Z,7.40
2019-02-12T23:19:46.038Z,8.07
2019-02-12T23:22:18.033Z,7.93
2019-02-12T23:24:50.063Z,7.20
2019-02-12T23:27:22.103Z,7.60
2019-02-12T23:29:54.118Z,8.53
2019-02-12T23:32:26.218Z,7.90
2019-02-12T23:34:58.199Z,8.70
2019-02-12T23:37:30.200Z,8.97
2019-02-12T23:40:02.205Z,7.83
2019-02-12T23:42:34.227Z,8.90
2019-02-12T23:45:06.337Z,8.50
2019-02-12T23:47:38.292Z,8.20
2019-02-12T23:50:10.283Z,8.50
2019-02-12T23:52:42.308Z,8.43
2019-02-12T23:55:14.303Z,9.70
2019-02-12T23:57:46.311Z,9.40
